Time;durP1;ratioP1;P1;durP2;ratioP2;P2;SDS_P1;SDS_P2;PMS_P1;PMS_P2;Temp;Humidity;BMP_temperature;BMP_pressure;BME280_temperature;BME280_humidity;BME280_pressure;Samples;Min_cycle;Max_cycle;Signal;HPM_P1;HPM_P2
2021/12/27 00:01:15;;;;;;;0.30;0.30;;;-2.20;99.90;;;;;;5068724;28;20124;-78
2021/12/27 00:03:42;;;;;;;0.55;0.55;;;-2.20;99.90;;;;;;5052478;28;20037;-78
2021/12/27 00:06:09;;;;;;;0.32;0.32;;;-2.30;99.90;;;;;;5068912;28;20094;-81
2021/12/27 00:08:40;;;;;;;0.40;0.40;;;-2.30;99.90;;;;;;5069159;28;20045;-78
2021/12/27 00:11:09;;;;;;;0.38;0.38;;;-2.30;99.90;;;;;;5069606;28;20041;-81
2021/12/27 00:13:36;;;;;;;0.30;0.30;;;-2.30;99.90;;;;;;5085575;28;20048;-78
2021/12/27 00:16:04;;;;;;;0.40;0.40;;;-2.40;99.90;;;;;;5068735;28;20458;-77
2021/12/27 00:18:31;;;;;;;0.40;0.40;;;-2.40;99.90;;;;;;5052666;28;20041;-78
2021/12/27 00:20:57;;;;;;;0.50;0.50;;;-2.40;99.90;;;;;;5068615;28;20378;-77
2021/12/27 00:23:24;;;;;;;0.30;0.30;;;-2.40;99.90;;;;;;5052211;28;20045;-77
2021/12/27 00:25:51;;;;;;;0.40;0.40;;;-2.50;99.90;;;;;;5052216;28;20041;-81
2021/12/27 00:28:18;;;;;;;0.40;0.40;;;-2.50;99.90;;;;;;5068982;28;20044;-81
2021/12/27 00:30:44;;;;;;;0.30;0.30;;;-2.40;99.90;;;;;;5069353;28;20516;-80
2021/12/27 00:33:11;;;;;;;0.30;0.30;;;-2.50;99.90;;;;;;5068858;28;20033;-82
2021/12/27 00:35:40;;;;;;;0.28;0.28;;;-2.60;99.90;;;;;;5069135;28;20174;-78
2021/12/27 00:38:07;;;;;;;0.40;0.40;;;-2.60;99.90;;;;;;5068686;28;20037;-82
2021/12/27 00:40:34;;;;;;;0.38;0.38;;;-2.60;99.90;;;;;;5069901;28;20105;-81
2021/12/27 00:43:01;;;;;;;0.30;0.30;;;-2.60;99.90;;;;;;5052265;28;20063;-77
2021/12/27 00:45:28;;;;;;;0.40;0.40;;;-2.60;99.90;;;;;;5072864;28;20044;-77
2021/12/27 00:47:55;;;;;;;0.60;0.60;;;-2.60;99.90;;;;;;5089084;28;20080;-81
2021/12/27 00:50:21;;;;;;;0.40;0.40;;;-2.60;99.90;;;;;;5072554;28;20094;-78
2021/12/27 00:52:49;;;;;;;0.30;0.30;;;-2.50;99.90;;;;;;5089126;28;20045;-80
2021/12/27 00:55:17;;;;;;;0.40;0.40;;;-2.50;99.90;;;;;;5089471;28;20041;-82
2021/12/27 00:57:46;;;;;;;0.30;0.30;;;-2.60;99.90;;;;;;5089554;28;20041;-78
2021/12/27 01:00:17;;;;;;;0.30;0.30;;;-2.60;99.90;;;;;;5088413;28;20044;-81
2021/12/27 01:02:45;;;;;;;0.32;0.32;;;-2.60;99.90;;;;;;5089550;28;20512;-81
2021/12/27 01:05:12;;;;;;;0.30;0.30;;;-2.60;99.90;;;;;;5056172;28;20041;-82
2021/12/27 01:07:40;;;;;;;0.52;0.52;;;-2.60;99.90;;;;;;5089070;28;20045;-81
2021/12/27 01:13:06;;;;;;;0.40;0.40;;;-2.60;99.90;;;;;;5088531;28;20056;-80
2021/12/27 01:18:07;;;;;;;0.40;0.40;;;-2.50;99.90;;;;;;5073202;28;20081;-82
2021/12/27 01:20:37;;;;;;;0.40;0.40;;;-2.50;99.90;;;;;;5088424;28;20065;-78
2021/12/27 01:23:04;;;;;;;0.30;0.30;;;-2.50;99.90;;;;;;5088540;28;20098;-78
2021/12/27 01:25:31;;;;;;;0.40;0.40;;;-1.60;99.90;;;;;;5056151;28;20045;-77
2021/12/27 01:27:58;;;;;;;0.40;0.40;;;-2.40;99.90;;;;;;5088374;28;20084;-82
2021/12/27 01:30:24;;;;;;;0.40;0.40;;;-2.50;99.90;;;;;;5055469;28;20072;-78
2021/12/27 01:32:57;;;;;;;0.30;0.30;;;-2.40;99.90;;;;;;5071953;28;20083;-82
2021/12/27 01:35:25;;;;;;;0.40;0.40;;;-2.40;99.90;;;;;;5088939;28;20044;-77
2021/12/27 01:37:53;;;;;;;0.30;0.30;;;-2.40;99.90;;;;;;5088161;28;20059;-81
2021/12/27 01:40:24;;;;;;;0.65;0.65;;;-2.40;99.90;;;;;;5088335;28;20044;-79
2021/12/27 01:43:07;;;;;;;0.20;0.20;;;-2.40;99.90;;;;;;5088518;28;20075;-82
2021/12/27 01:45:36;;;;;;;0.30;0.30;;;-2.40;99.90;;;;;;5088266;28;20060;-79
2021/12/27 01:48:05;;;;;;;0.30;0.30;;;-2.30;99.90;;;;;;5087904;28;20707;-79
2021/12/27 01:50:32;;;;;;;0.30;0.30;;;-2.30;99.90;;;;;;5088257;28;20454;-79
2021/12/27 01:52:58;;;;;;;0.30;0.30;;;-2.30;99.90;;;;;;5071286;28;20068;-82
2021/12/27 01:55:25;;;;;;;0.30;0.30;;;-2.30;99.90;;;;;;5054954;28;20079;-78
2021/12/27 01:57:52;;;;;;;0.50;0.50;;;-2.20;99.90;;;;;;5055557;28;20474;-81
2021/12/27 02:00:19;;;;;;;0.30;0.30;;;-2.20;99.90;;;;;;5054574;28;20041;-78
2021/12/27 02:02:46;;;;;;;0.30;0.30;;;-2.20;99.90;;;;;;5078475;28;20054;-78
2021/12/27 02:05:14;;;;;;;0.40;0.40;;;-2.20;99.90;;;;;;5082844;28;20094;-81
2021/12/27 02:07:41;;;;;;;0.70;0.52;;;-2.20;99.90;;;;;;5071260;28;20041;-78
2021/12/27 02:10:10;;;;;;;0.30;0.30;;;-2.20;99.90;;;;;;5087182;28;20051;-82
2021/12/27 02:12:37;;;;;;;0.30;0.30;;;-2.20;99.90;;;;;;5071154;28;20079;-78
2021/12/27 02:15:09;;;;;;;0.35;0.35;;;-2.20;99.90;;;;;;5087749;28;20150;-81
2021/12/27 02:17:38;;;;;;;0.40;0.40;;;-2.10;99.90;;;;;;5088743;28;20049;-82
2021/12/27 02:20:26;;;;;;;0.30;0.30;;;-2.10;99.90;;;;;;5087027;28;20048;-82
2021/12/27 02:22:59;;;;;;;0.30;0.30;;;-2.10;99.90;;;;;;5087354;28;20037;-78
2021/12/27 02:25:30;;;;;;;0.40;0.40;;;-2.10;99.90;;;;;;5087004;28;20417;-78
2021/12/27 02:27:58;;;;;;;0.30;0.30;;;-2.10;99.90;;;;;;5087449;28;20040;-78
2021/12/27 02:30:25;;;;;;;0.40;0.40;;;-1.90;99.90;;;;;;5087025;28;20037;-78
2021/12/27 02:32:57;;;;;;;0.30;0.30;;;-2.00;99.90;;;;;;5086880;28;20037;-78
2021/12/27 02:35:30;;;;;;;0.40;0.40;;;-2.00;99.90;;;;;;5086686;28;20037;-78
2021/12/27 02:37:58;;;;;;;0.30;0.30;;;-2.00;99.90;;;;;;5088174;28;20098;-79
2021/12/27 02:40:27;;;;;;;0.35;0.35;;;-2.00;99.90;;;;;;5070356;28;20123;-78
2021/12/27 02:43:12;;;;;;;0.30;0.30;;;-1.10;99.90;;;;;;5054116;28;20087;-81
2021/12/27 02:46:10;;;;;;;0.30;0.30;;;-2.00;99.90;;;;;;5070757;28;20088;-78
2021/12/27 02:48:44;;;;;;;1.13;1.02;;;-2.00;99.90;;;;;;5087447;28;20136;-78
2021/12/27 02:51:12;;;;;;;0.32;0.32;;;-1.90;99.90;;;;;;5086857;28;20045;-82
2021/12/27 02:53:38;;;;;;;0.40;0.40;;;-1.90;99.90;;;;;;5086899;28;20072;-78
2021/12/27 02:56:06;;;;;;;0.30;0.30;;;-1.00;99.90;;;;;;5070431;28;20126;-79
2021/12/27 02:58:34;;;;;;;0.32;0.32;;;-1.90;99.90;;;;;;5087474;28;20100;-79
2021/12/27 03:01:11;;;;;;;0.32;0.32;;;-1.90;99.90;;;;;;5070213;28;20135;-78
2021/12/27 03:03:39;;;;;;;0.35;0.35;;;-1.90;99.90;;;;;;5086352;28;20848;-78
2021/12/27 03:06:06;;;;;;;0.30;0.30;;;-1.80;99.90;;;;;;5086540;28;20040;-78
2021/12/27 03:08:34;;;;;;;0.30;0.30;;;-1.80;99.90;;;;;;5053088;28;20041;-78
2021/12/27 03:11:03;;;;;;;0.40;0.40;;;-1.80;99.90;;;;;;5070202;28;20047;-77
2021/12/27 03:13:33;;;;;;;0.40;0.40;;;-1.60;99.90;;;;;;5086101;28;20041;-78
2021/12/27 03:16:05;;;;;;;0.20;0.20;;;-0.50;99.90;;;;;;5086154;28;20049;-78
2021/12/27 03:18:33;;;;;;;0.30;0.30;;;-1.20;99.90;;;;;;5085870;28;20405;-77
2021/12/27 03:21:02;;;;;;;0.20;0.20;;;-1.70;99.90;;;;;;5070039;28;20045;-77
2021/12/27 03:23:29;;;;;;;0.40;0.40;;;-1.70;99.90;;;;;;5085812;28;20071;-78
2021/12/27 03:25:55;;;;;;;0.35;0.35;;;-1.70;99.90;;;;;;5069853;28;20123;-77
2021/12/27 03:28:23;;;;;;;0.40;0.40;;;-1.70;99.90;;;;;;5069543;28;20072;-81
2021/12/27 03:30:51;;;;;;;0.30;0.30;;;-1.70;99.90;;;;;;5086239;28;20044;-78
2021/12/27 03:33:20;;;;;;;0.30;0.30;;;-1.70;99.90;;;;;;5052959;28;20076;-78
2021/12/27 03:36:08;;;;;;;0.30;0.30;;;-1.00;99.90;;;;;;5086562;28;20071;-78
2021/12/27 03:38:39;;;;;;;0.50;0.50;;;-1.70;99.90;;;;;;5055684;28;20033;-82
2021/12/27 03:41:12;;;;;;;0.32;0.32;;;-1.70;99.90;;;;;;5086054;28;20044;-79
2021/12/27 03:43:41;;;;;;;0.30;0.30;;;-1.70;99.90;;;;;;5086299;28;20049;-79
2021/12/27 03:46:08;;;;;;;0.30;0.30;;;-1.60;99.90;;;;;;5053225;28;20056;-82
2021/12/27 03:48:35;;;;;;;0.30;0.30;;;-1.60;99.90;;;;;;5085877;28;20052;-79
2021/12/27 03:51:02;;;;;;;0.30;0.30;;;-1.60;99.90;;;;;;5069308;28;20389;-79
2021/12/27 03:53:29;;;;;;;0.20;0.20;;;-1.60;99.90;;;;;;5068694;28;20048;-78
2021/12/27 03:55:57;;;;;;;0.30;0.30;;;-1.60;99.90;;;;;;5069922;28;20500;-83
2021/12/27 03:58:31;;;;;;;0.98;0.68;;;-1.60;99.90;;;;;;5068700;28;20512;-82
2021/12/27 04:01:13;;;;;;;0.40;0.40;;;-0.90;99.90;;;;;;5085991;28;20037;-82
2021/12/27 04:03:41;;;;;;;0.40;0.40;;;-1.60;99.90;;;;;;5054902;28;20056;-77
2021/12/27 04:06:08;;;;;;;0.30;0.30;;;-1.60;99.90;;;;;;5068970;28;20045;-81
2021/12/27 04:08:35;;;;;;;0.30;0.30;;;-1.60;99.90;;;;;;5085556;28;20051;-77
2021/12/27 04:11:02;;;;;;;0.20;0.20;;;-1.60;99.90;;;;;;5068635;28;20441;-82
2021/12/27 04:13:28;;;;;;;0.40;0.40;;;-1.60;99.90;;;;;;5052504;28;20076;-77
2021/12/27 04:15:55;;;;;;;0.20;0.20;;;-1.50;99.90;;;;;;5085869;28;20080;-80
2021/12/27 04:18:22;;;;;;;0.40;0.40;;;-1.40;99.90;;;;;;5069384;28;20472;-78
2021/12/27 04:20:49;;;;;;;0.40;0.40;;;-1.50;99.90;;;;;;5056720;28;20398;-78
2021/12/27 04:23:16;;;;;;;0.30;0.30;;;-1.50;99.90;;;;;;5057058;28;20456;-81
2021/12/27 04:25:44;;;;;;;0.30;0.30;;;-1.50;99.90;;;;;;5089531;28;20041;-80
2021/12/27 04:28:11;;;;;;;0.30;0.30;;;-1.50;99.90;;;;;;5073038;28;20502;-82
2021/12/27 04:30:38;;;;;;;0.30;0.30;;;-1.50;99.90;;;;;;5073263;28;20045;-78
2021/12/27 04:33:05;;;;;;;0.30;0.30;;;-1.10;99.90;;;;;;5089878;28;20052;-81
2021/12/27 04:35:32;;;;;;;0.30;0.30;;;-1.40;99.90;;;;;;5089257;28;20040;-78
2021/12/27 04:37:59;;;;;;;0.40;0.40;;;-1.40;99.90;;;;;;5089328;28;20037;-81
2021/12/27 04:40:29;;;;;;;0.30;0.30;;;-1.50;99.90;;;;;;5072230;28;20036;-82
2021/12/27 04:42:59;;;;;;;0.25;0.25;;;-1.40;99.90;;;;;;5089022;28;20178;-77
2021/12/27 04:45:26;;;;;;;0.20;0.20;;;-0.30;99.90;;;;;;5088763;28;20037;-81
2021/12/27 04:47:53;;;;;;;0.30;0.30;;;-1.40;99.90;;;;;;5072981;28;20041;-79
2021/12/27 04:50:23;;;;;;;0.30;0.30;;;-1.40;99.90;;;;;;5072663;28;20498;-79
2021/12/27 04:52:53;;;;;;;0.30;0.30;;;-1.40;99.90;;;;;;5073604;28;20052;-78
2021/12/27 04:55:24;;;;;;;0.40;0.40;;;-1.10;99.90;;;;;;5089478;28;20094;-81
2021/12/27 04:57:51;;;;;;;0.30;0.30;;;-1.30;99.90;;;;;;5089014;28;20051;-77
2021/12/27 05:00:18;;;;;;;0.20;0.20;;;-1.30;99.90;;;;;;5072190;28;20047;-79
2021/12/27 05:02:45;;;;;;;0.40;0.40;;;-1.30;99.90;;;;;;5088795;28;20041;-78
2021/12/27 05:05:12;;;;;;;0.30;0.30;;;-1.10;99.90;;;;;;5072351;28;20379;-78
2021/12/27 05:07:38;;;;;;;0.30;0.30;;;-1.10;99.90;;;;;;5072050;28;20052;-78
2021/12/27 05:10:05;;;;;;;0.45;0.45;;;-1.30;99.90;;;;;;5055727;28;20486;-78
2021/12/27 05:12:32;;;;;;;0.30;0.30;;;-1.30;99.90;;;;;;5088815;28;20067;-82
2021/12/27 05:14:59;;;;;;;0.30;0.30;;;-1.30;99.90;;;;;;5072229;28;20049;-78
2021/12/27 05:17:26;;;;;;;0.30;0.30;;;-1.30;99.90;;;;;;5072058;28;20516;-79
2021/12/27 05:19:52;;;;;;;0.30;0.30;;;-1.30;99.90;;;;;;5072594;28;20486;-78
2021/12/27 05:22:19;;;;;;;0.30;0.30;;;-1.30;99.90;;;;;;5056274;28;20063;-78
2021/12/27 05:24:46;;;;;;;0.30;0.30;;;-0.10;99.90;;;;;;5088155;28;20053;-81
2021/12/27 05:27:12;;;;;;;0.30;0.30;;;-0.80;99.90;;;;;;5072439;28;20123;-78
2021/12/27 05:29:39;;;;;;;0.30;0.30;;;-0.60;99.90;;;;;;5079150;28;20072;-82
2021/12/27 05:32:06;;;;;;;0.30;0.30;;;-1.30;99.90;;;;;;5086832;28;20044;-81
2021/12/27 05:34:33;;;;;;;0.30;0.30;;;-1.20;99.90;;;;;;5075902;28;20094;-79
2021/12/27 05:37:00;;;;;;;0.30;0.30;;;-1.20;99.90;;;;;;5092034;28;20493;-82
2021/12/27 05:39:27;;;;;;;0.30;0.30;;;-1.20;99.90;;;;;;5091483;28;20097;-79
2021/12/27 05:41:53;;;;;;;0.30;0.30;;;-1.20;99.90;;;;;;5075458;28;20042;-79
2021/12/27 05:44:20;;;;;;;0.30;0.30;;;-1.20;99.90;;;;;;5091715;28;20105;-82
2021/12/27 05:46:47;;;;;;;0.30;0.30;;;-1.20;99.90;;;;;;5091115;28;20044;-78
2021/12/27 05:49:14;;;;;;;0.38;0.38;;;-1.20;99.90;;;;;;5074904;28;20056;-78
2021/12/27 05:51:43;;;;;;;0.20;0.20;;;-1.20;99.90;;;;;;5091338;28;20079;-81
2021/12/27 05:54:12;;;;;;;0.30;0.30;;;-1.20;99.90;;;;;;5075045;28;20047;-81
2021/12/27 05:56:40;;;;;;;0.30;0.30;;;-1.20;99.90;;;;;;5075236;28;20037;-82
2021/12/27 05:59:07;;;;;;;0.40;0.40;;;-1.20;99.90;;;;;;5089107;28;20033;-81
2021/12/27 06:01:33;;;;;;;1.27;1.13;;;-1.20;99.90;;;;;;5070878;28;20120;-82
2021/12/27 06:04:00;;;;;;;0.32;0.32;;;-1.20;99.90;;;;;;5100452;28;20043;-78
2021/12/27 06:06:27;;;;;;;0.40;0.40;;;-1.10;99.90;;;;;;5078014;28;20065;-78
2021/12/27 06:08:54;;;;;;;0.30;0.30;;;-1.20;99.90;;;;;;5090399;28;20036;-78
2021/12/27 06:11:21;;;;;;;0.30;0.30;;;-1.10;99.90;;;;;;5073518;28;20043;-81
2021/12/27 06:13:48;;;;;;;0.30;0.30;;;-1.20;99.90;;;;;;5076730;28;20044;-81
2021/12/27 06:16:15;;;;;;;0.20;0.20;;;-1.20;99.90;;;;;;5076982;28;20494;-77
2021/12/27 06:18:42;;;;;;;0.30;0.30;;;-1.20;99.90;;;;;;5079811;28;20033;-78
2021/12/27 06:21:08;;;;;;;0.30;0.30;;;-1.20;99.90;;;;;;5080335;28;20374;-82
2021/12/27 06:23:35;;;;;;;0.30;0.30;;;-0.40;99.90;;;;;;5090233;28;20070;-82
2021/12/27 06:26:02;;;;;;;0.30;0.30;;;-1.10;99.90;;;;;;5091077;28;20033;-79
2021/12/27 06:28:31;;;;;;;0.20;0.20;;;-1.20;99.90;;;;;;5074420;28;20082;-79
2021/12/27 06:30:58;;;;;;;0.30;0.30;;;-0.20;99.90;;;;;;5074497;28;20133;-79
2021/12/27 06:33:25;;;;;;;0.30;0.30;;;-1.10;99.90;;;;;;5090632;28;20174;-78
2021/12/27 06:35:52;;;;;;;0.30;0.30;;;-1.10;99.90;;;;;;5073907;28;20475;-82
2021/12/27 06:38:20;;;;;;;0.30;0.30;;;-1.10;99.90;;;;;;5074461;28;20129;-79
2021/12/27 06:40:48;;;;;;;0.30;0.30;;;-1.10;99.90;;;;;;5073904;28;20044;-82
2021/12/27 06:43:15;;;;;;;0.30;0.30;;;-1.10;99.90;;;;;;5090630;28;20052;-79
2021/12/27 06:45:43;;;;;;;0.30;0.30;;;-1.10;99.90;;;;;;5090292;28;20472;-82
2021/12/27 06:48:10;;;;;;;0.30;0.30;;;-1.10;99.90;;;;;;5090152;28;20489;-83
2021/12/27 06:50:37;;;;;;;0.30;0.30;;;-1.10;99.90;;;;;;5074137;28;20076;-81
2021/12/27 06:53:05;;;;;;;0.30;0.30;;;-1.10;99.90;;;;;;5090774;28;20515;-82
2021/12/27 06:55:31;;;;;;;0.40;0.40;;;-1.10;99.90;;;;;;5090962;28;20408;-80
2021/12/27 06:57:58;;;;;;;0.30;0.30;;;-1.10;99.90;;;;;;5089985;28;20036;-77
2021/12/27 07:00:25;;;;;;;0.55;0.55;;;-1.00;99.90;;;;;;5091225;28;20102;-78
2021/12/27 07:02:52;;;;;;;0.40;0.40;;;-1.00;99.90;;;;;;5090225;28;20420;-78
2021/12/27 07:05:19;;;;;;;0.30;0.30;;;-1.00;99.90;;;;;;5089859;28;20131;-82
2021/12/27 07:07:46;;;;;;;0.30;0.30;;;-1.00;99.90;;;;;;5047329;28;20091;-77
2021/12/27 07:10:15;;;;;;;0.30;0.30;;;-0.20;99.90;;;;;;5089274;28;20456;-78
2021/12/27 07:12:42;;;;;;;0.20;0.20;;;-1.00;99.90;;;;;;5086461;28;20048;-82
2021/12/27 07:15:09;;;;;;;0.30;0.30;;;-1.00;99.90;;;;;;5086008;28;20151;-78
2021/12/27 07:17:35;;;;;;;0.30;0.30;;;-1.00;99.90;;;;;;5086432;28;20045;-81
2021/12/27 07:20:04;;;;;;;0.30;0.30;;;-1.00;99.90;;;;;;5070906;28;20047;-81
2021/12/27 07:22:31;;;;;;;0.60;0.60;;;-0.90;99.90;;;;;;5086949;28;20044;-81
2021/12/27 07:24:58;;;;;;;0.30;0.30;;;-0.90;99.90;;;;;;5058874;28;20512;-78
2021/12/27 07:27:24;;;;;;;0.30;0.30;;;-0.90;99.90;;;;;;5097441;28;20032;-78
2021/12/27 07:29:51;;;;;;;0.30;0.30;;;-0.70;99.90;;;;;;5073221;28;20041;-82
2021/12/27 07:32:18;;;;;;;0.30;0.30;;;-0.90;99.90;;;;;;5102272;28;20066;-81
2021/12/27 07:34:45;;;;;;;0.40;0.40;;;-0.90;99.90;;;;;;5082097;28;20041;-78
2021/12/27 07:37:12;;;;;;;0.30;0.30;;;-0.90;99.90;;;;;;5103280;28;20099;-82
2021/12/27 07:39:39;;;;;;;0.30;0.30;;;-0.90;99.90;;;;;;5084686;28;20429;-77
2021/12/27 07:42:06;;;;;;;0.20;0.20;;;-0.80;99.90;;;;;;5066423;28;20047;-82
2021/12/27 07:44:32;;;;;;;0.25;0.25;;;-0.90;99.90;;;;;;5058486;28;20071;-82
2021/12/27 07:46:59;;;;;;;0.30;0.30;;;-0.80;99.90;;;;;;5071404;28;20048;-80
2021/12/27 07:49:26;;;;;;;0.30;0.30;;;-0.80;99.90;;;;;;5088016;28;20043;-81
2021/12/27 07:51:53;;;;;;;0.40;0.40;;;-0.80;99.90;;;;;;5076828;28;20037;-78
2021/12/27 07:54:19;;;;;;;0.30;0.30;;;-0.80;99.90;;;;;;5059592;28;20139;-77
2021/12/27 07:56:46;;;;;;;0.30;0.30;;;-0.80;99.90;;;;;;5068745;28;20041;-80
2021/12/27 07:59:13;;;;;;;0.25;0.25;;;-0.80;99.90;;;;;;5052897;28;20094;-81
2021/12/27 08:01:40;;;;;;;0.30;0.30;;;-0.80;99.90;;;;;;5058493;28;20047;-77
2021/12/27 08:04:08;;;;;;;0.30;0.30;;;-0.80;99.90;;;;;;5080934;28;20124;-81
2021/12/27 08:06:36;;;;;;;1.27;0.52;;;-0.10;99.90;;;;;;5053051;28;20033;-82
2021/12/27 08:09:05;;;;;;;0.30;0.30;;;-0.70;99.90;;;;;;5085046;28;20524;-83
2021/12/27 08:11:31;;;;;;;0.30;0.30;;;-0.10;99.90;;;;;;5069657;28;20082;-82
2021/12/27 08:13:58;;;;;;;0.30;0.30;;;-0.70;99.90;;;;;;5076875;28;20041;-81
2021/12/27 08:16:25;;;;;;;0.30;0.30;;;-0.70;99.90;;;;;;5083837;28;20772;-81
2021/12/27 08:18:53;;;;;;;0.30;0.30;;;-0.70;99.90;;;;;;5069979;28;20382;-81
2021/12/27 08:21:21;;;;;;;0.20;0.20;;;-0.60;99.90;;;;;;5078980;28;20412;-78
2021/12/27 08:23:48;;;;;;;0.30;0.30;;;-0.60;99.90;;;;;;5105201;28;20052;-78
2021/12/27 08:26:15;;;;;;;1.55;0.57;;;-0.60;99.90;;;;;;5056067;28;20054;-78
2021/12/27 08:28:43;;;;;;;0.30;0.30;;;-0.60;99.90;;;;;;5096486;28;20045;-78
2021/12/27 08:31:10;;;;;;;0.22;0.22;;;-0.60;99.90;;;;;;5105092;28;20277;-78
2021/12/27 08:33:36;;;;;;;0.30;0.30;;;-0.60;99.90;;;;;;5066176;28;20041;-81
2021/12/27 08:36:04;;;;;;;0.30;0.30;;;-0.30;99.90;;;;;;5071517;28;20041;-78
2021/12/27 08:38:31;;;;;;;0.20;0.20;;;-0.50;99.90;;;;;;5088606;28;20044;-81
2021/12/27 08:40:58;;;;;;;0.30;0.30;;;-0.50;99.90;;;;;;5104789;28;20528;-81
2021/12/27 08:43:27;;;;;;;0.30;0.30;;;0.50;99.90;;;;;;5079645;28;20064;-78
2021/12/27 08:45:56;;;;;;;0.30;0.30;;;-0.50;99.90;;;;;;5054199;28;20095;-81
2021/12/27 08:48:23;;;;;;;0.30;0.30;;;-0.50;99.90;;;;;;5068720;28;20045;-81
2021/12/27 08:50:50;;;;;;;0.20;0.20;;;-0.40;99.90;;;;;;5067878;28;20045;-79
2021/12/27 08:53:17;;;;;;;0.30;0.30;;;-0.40;99.90;;;;;;5084923;28;20045;-77
2021/12/27 08:55:44;;;;;;;0.20;0.20;;;-0.40;99.90;;;;;;5068912;28;20036;-80
2021/12/27 08:58:10;;;;;;;0.22;0.22;;;-0.40;99.90;;;;;;5084434;28;20044;-81
2021/12/27 09:00:37;;;;;;;0.30;0.30;;;-0.40;99.90;;;;;;5052083;28;20041;-78
2021/12/27 09:03:04;;;;;;;0.30;0.30;;;-0.40;99.90;;;;;;5067888;28;20071;-78
2021/12/27 09:05:31;;;;;;;0.20;0.20;;;-0.40;99.90;;;;;;5079042;28;20044;-81
2021/12/27 09:07:58;;;;;;;0.25;0.25;;;-0.40;99.90;;;;;;5076764;28;20040;-78
2021/12/27 09:10:24;;;;;;;0.30;0.30;;;-0.40;99.90;;;;;;5091792;28;20051;-80
2021/12/27 09:12:51;;;;;;;0.20;0.20;;;-0.30;99.90;;;;;;5066814;28;20044;-77
2021/12/27 09:15:18;;;;;;;0.20;0.20;;;-0.30;99.90;;;;;;5072910;28;20064;-77
2021/12/27 09:17:45;;;;;;;0.30;0.30;;;-0.30;99.90;;;;;;5054767;28;20041;-80
2021/12/27 09:20:13;;;;;;;0.50;0.50;;;-0.10;99.90;;;;;;5073953;28;20042;-79
2021/12/27 09:22:41;;;;;;;0.30;0.30;;;-0.30;99.90;;;;;;5091118;28;20445;-77
2021/12/27 09:25:08;;;;;;;0.22;0.22;;;-0.20;99.90;;;;;;5107818;28;20048;-77
2021/12/27 09:27:35;;;;;;;0.30;0.30;;;-0.20;99.90;;;;;;5065564;28;20697;-81
2021/12/27 09:30:09;;;;;;;1.08;0.73;;;-0.20;99.90;;;;;;5070807;28;20125;-77
2021/12/27 09:32:36;;;;;;;0.20;0.20;;;-0.20;99.90;;;;;;5077764;28;20564;-77
2021/12/27 09:35:05;;;;;;;0.30;0.30;;;-0.20;99.90;;;;;;5070984;28;20067;-81
2021/12/27 09:37:32;;;;;;;0.30;0.30;;;-0.20;99.90;;;;;;5087527;28;20123;-81
2021/12/27 09:39:59;;;;;;;0.30;0.30;;;-0.10;99.90;;;;;;5037981;28;20406;-82
2021/12/27 09:42:27;;;;;;;0.38;0.38;;;-0.20;99.90;;;;;;5064999;28;20139;-78
2021/12/27 09:44:56;;;;;;;0.30;0.30;;;-0.10;99.90;;;;;;5074234;28;20040;-78
2021/12/27 09:47:23;;;;;;;0.30;0.30;;;-0.10;99.90;;;;;;5081023;28;20124;-82
2021/12/27 09:49:50;;;;;;;0.32;0.32;;;-0.10;99.90;;;;;;5087752;28;20037;-78
2021/12/27 09:52:17;;;;;;;0.50;0.50;;;-0.10;99.90;;;;;;5054074;28;20444;-81
2021/12/27 09:54:47;;;;;;;0.30;0.30;;;0.00;99.90;;;;;;5054735;28;20040;-78
2021/12/27 09:57:15;;;;;;;0.20;0.20;;;0.00;99.90;;;;;;5077475;28;20040;-81
2021/12/27 09:59:42;;;;;;;0.30;0.30;;;0.00;99.90;;;;;;5090389;28;20436;-78
2021/12/27 10:02:10;;;;;;;0.20;0.20;;;0.00;99.90;;;;;;5070705;28;20588;-78
2021/12/27 10:04:37;;;;;;;0.30;0.30;;;0.00;99.90;;;;;;5090029;28;20045;-78
2021/12/27 10:07:04;;;;;;;0.20;0.20;;;0.80;99.90;;;;;;5082714;28;20039;-78
2021/12/27 10:09:34;;;;;;;0.30;0.30;;;0.00;99.90;;;;;;5073647;28;20086;-78
2021/12/27 10:12:06;;;;;;;0.30;0.30;;;0.00;99.90;;;;;;5072718;28;20466;-78
2021/12/27 10:14:33;;;;;;;0.30;0.30;;;0.10;99.90;;;;;;5090515;28;20485;-78
2021/12/27 10:17:11;;;;;;;0.30;0.30;;;1.20;99.90;;;;;;5072265;28;20056;-78
2021/12/27 10:19:38;;;;;;;0.20;0.20;;;0.10;99.90;;;;;;5061377;28;20037;-82
2021/12/27 10:22:12;;;;;;;1.10;1.10;;;0.10;99.90;;;;;;5066772;28;20036;-78
2021/12/27 10:24:39;;;;;;;0.30;0.30;;;0.40;99.90;;;;;;5090261;28;20044;-78
2021/12/27 10:27:07;;;;;;;0.20;0.20;;;0.20;99.90;;;;;;5089075;28;20500;-78
2021/12/27 10:29:36;;;;;;;0.30;0.30;;;0.20;99.90;;;;;;5090349;28;20047;-81
2021/12/27 10:32:18;;;;;;;0.30;0.30;;;0.40;99.90;;;;;;5088860;28;20037;-80
2021/12/27 10:34:51;;;;;;;0.20;0.20;;;0.30;99.90;;;;;;5096584;28;20041;-76
2021/12/27 10:37:26;;;;;;;0.22;0.22;;;0.30;99.90;;;;;;5080208;28;20046;-81
2021/12/27 10:40:09;;;;;;;0.28;0.28;;;0.40;99.90;;;;;;5091629;28;20110;-80
2021/12/27 10:42:35;;;;;;;0.30;0.30;;;0.40;99.90;;;;;;5103904;28;20048;-77
2021/12/27 10:45:05;;;;;;;0.35;0.35;;;0.40;99.90;;;;;;5083557;28;20033;-81
2021/12/27 10:47:37;;;;;;;0.30;0.30;;;0.40;99.90;;;;;;5072519;28;20480;-81
2021/12/27 10:50:11;;;;;;;0.30;0.30;;;0.40;99.90;;;;;;5086144;28;20166;-80
2021/12/27 10:52:55;;;;;;;0.40;0.40;;;0.40;99.90;;;;;;5086108;28;20041;-81
2021/12/27 10:55:25;;;;;;;0.30;0.30;;;0.50;99.90;;;;;;5069487;28;20040;-82
2021/12/27 10:58:08;;;;;;;0.32;0.32;;;0.60;99.90;;;;;;5069250;28;20500;-82
2021/12/27 11:00:35;;;;;;;0.30;0.30;;;0.50;99.90;;;;;;5095207;28;20037;-81
2021/12/27 11:03:03;;;;;;;0.30;0.30;;;0.50;99.90;;;;;;5070711;28;20125;-81
2021/12/27 11:05:34;;;;;;;0.30;0.30;;;0.70;99.90;;;;;;5053011;28;20052;-77
2021/12/27 11:08:03;;;;;;;0.20;0.20;;;0.70;99.90;;;;;;5088596;28;20047;-81
2021/12/27 11:10:34;;;;;;;0.20;0.20;;;0.70;99.90;;;;;;5090862;28;20063;-83
2021/12/27 11:13:04;;;;;;;0.20;0.20;;;0.80;99.90;;;;;;5088336;28;20185;-82
2021/12/27 11:15:33;;;;;;;0.20;0.20;;;0.90;99.90;;;;;;5087115;28;20056;-82
2021/12/27 11:18:00;;;;;;;0.20;0.20;;;0.90;99.90;;;;;;5085612;28;20048;-79
2021/12/27 11:20:27;;;;;;;0.20;0.20;;;0.90;99.90;;;;;;5073889;28;20055;-82
2021/12/27 11:22:58;;;;;;;0.20;0.20;;;0.90;99.90;;;;;;5058769;28;20048;-76
2021/12/27 11:25:39;;;;;;;0.65;0.47;;;0.90;99.90;;;;;;5098042;28;20064;-77
2021/12/27 11:28:28;;;;;;;0.30;0.30;;;1.10;99.90;;;;;;5068017;28;20045;-81
2021/12/27 11:30:57;;;;;;;0.30;0.30;;;1.20;99.90;;;;;;5093385;28;20047;-77
2021/12/27 11:33:24;;;;;;;0.28;0.28;;;0.90;99.90;;;;;;5088960;28;20048;-77
2021/12/27 11:35:51;;;;;;;0.30;0.30;;;0.90;99.90;;;;;;5077645;28;20032;-77
2021/12/27 11:38:33;;;;;;;0.20;0.20;;;0.90;99.90;;;;;;5095589;28;20044;-77
2021/12/27 11:41:03;;;;;;;0.20;0.20;;;0.90;99.90;;;;;;5101654;28;20039;-82
2021/12/27 11:44:04;;;;;;;0.20;0.20;;;0.90;99.90;;;;;;5095035;28;20175;-77
2021/12/27 11:46:47;;;;;;;0.30;0.30;;;0.90;99.90;;;;;;5038738;28;20075;-82
2021/12/27 11:49:16;;;;;;;0.20;0.20;;;0.90;99.90;;;;;;5069225;28;20044;-82
2021/12/27 11:51:46;;;;;;;0.20;0.20;;;0.90;99.90;;;;;;5095485;28;20067;-77
2021/12/27 11:54:28;;;;;;;0.30;0.30;;;0.90;99.90;;;;;;5064689;28;20512;-81
2021/12/27 11:56:57;;;;;;;0.20;0.20;;;0.90;99.90;;;;;;5095093;28;20119;-82
2021/12/27 11:59:32;;;;;;;0.20;0.20;;;0.90;99.90;;;;;;5082825;28;20032;-81
2021/12/27 12:02:01;;;;;;;0.57;0.57;;;0.90;99.90;;;;;;5102579;28;20040;-81
2021/12/27 12:04:46;;;;;;;0.10;0.10;;;0.90;99.90;;;;;;5071606;28;20085;-76
2021/12/27 12:07:35;;;;;;;0.30;0.30;;;0.90;99.90;;;;;;5088180;28;20036;-76
2021/12/27 12:10:12;;;;;;;0.20;0.20;;;0.90;99.90;;;;;;5072071;28;20036;-80
2021/12/27 12:12:41;;;;;;;1.05;1.00;;;0.80;99.90;;;;;;5086666;28;20037;-76
2021/12/27 12:15:08;;;;;;;0.20;0.20;;;0.80;99.90;;;;;;5064143;28;20152;-82
2021/12/27 12:17:49;;;;;;;0.20;0.20;;;0.90;99.90;;;;;;5067882;28;20045;-81
2021/12/27 12:20:28;;;;;;;0.20;0.20;;;1.00;99.90;;;;;;5095091;28;20041;-78
2021/12/27 12:22:59;;;;;;;0.20;0.20;;;0.80;99.90;;;;;;5087263;28;20049;-81
2021/12/27 12:25:27;;;;;;;0.28;0.28;;;0.90;99.90;;;;;;5083043;28;20149;-78
2021/12/27 12:28:02;;;;;;;0.20;0.20;;;0.90;99.90;;;;;;5067378;28;20063;-77
2021/12/27 12:30:45;;;;;;;0.20;0.20;;;0.90;99.90;;;;;;5103013;28;20048;-82
2021/12/27 12:33:35;;;;;;;0.20;0.20;;;0.90;99.90;;;;;;5088260;28;20044;-81
2021/12/27 12:36:04;;;;;;;0.20;0.20;;;0.90;99.90;;;;;;5079579;28;20043;-77
2021/12/27 12:38:33;;;;;;;0.25;0.25;;;0.90;99.90;;;;;;5088053;28;20363;-82
2021/12/27 12:41:11;;;;;;;0.30;0.30;;;1.00;99.90;;;;;;5074917;28;20040;-78
2021/12/27 12:43:57;;;;;;;0.20;0.20;;;0.90;99.90;;;;;;5108828;28;20050;-80
2021/12/27 12:46:38;;;;;;;0.30;0.30;;;1.00;99.90;;;;;;5108670;28;20040;-81
2021/12/27 12:49:13;;;;;;;0.30;0.30;;;1.00;99.90;;;;;;5109878;28;20040;-78
2021/12/27 12:52:04;;;;;;;0.20;0.20;;;1.00;99.90;;;;;;5109109;28;20051;-78
2021/12/27 12:54:34;;;;;;;0.20;0.20;;;1.00;99.90;;;;;;5090794;28;20061;-82
2021/12/27 12:57:08;;;;;;;0.65;0.65;;;1.20;99.90;;;;;;5108340;28;20048;-82
2021/12/27 12:59:53;;;;;;;0.57;0.57;;;1.10;99.90;;;;;;5108553;28;20037;-78
2021/12/27 13:02:29;;;;;;;0.20;0.20;;;1.10;99.90;;;;;;5088332;28;20049;-78
2021/12/27 13:04:59;;;;;;;;;;;1.10;99.90;;;;;;5086303;28;20519;-81
2021/12/27 13:07:55;;;;;;;0.28;0.28;;;1.10;99.90;;;;;;5092294;28;20281;-81